sensor_id;sensor_type;location;lat;lon;timestamp;P1;durP1;ratioP1;P2;durP2;ratioP2
26977;SDS011;56314;48.088;11.642;2022-11-28T00:02:11;22.17;;;14.15;;
26977;SDS011;56314;48.088;11.642;2022-11-28T00:04:36;23.55;;;14.23;;
26977;SDS011;56314;48.088;11.642;2022-11-28T00:07:02;23.17;;;15.15;;
26977;SDS011;56314;48.088;11.642;2022-11-28T00:09:27;21.65;;;14.68;;
26977;SDS011;56314;48.088;11.642;2022-11-28T00:11:53;19.85;;;13.98;;
26977;SDS011;56314;48.088;11.642;2022-11-28T00:14:18;22.70;;;14.90;;
26977;SDS011;56314;48.088;11.642;2022-11-28T00:16:44;23.38;;;14.73;;
26977;SDS011;56314;48.088;11.642;2022-11-28T00:19:11;23.92;;;14.77;;
26977;SDS011;56314;48.088;11.642;2022-11-28T00:21:37;23.67;;;13.85;;
26977;SDS011;56314;48.088;11.642;2022-11-28T00:24:03;25.95;;;14.63;;
26977;SDS011;56314;48.088;11.642;2022-11-28T00:26:30;23.73;;;15.18;;
26977;SDS011;56314;48.088;11.642;2022-11-28T00:28:56;22.98;;;14.55;;
26977;SDS011;56314;48.088;11.642;2022-11-28T00:31:27;22.90;;;14.52;;
26977;SDS011;56314;48.088;11.642;2022-11-28T00:33:53;23.20;;;13.75;;
26977;SDS011;56314;48.088;11.642;2022-11-28T00:36:19;22.38;;;14.20;;
26977;SDS011;56314;48.088;11.642;2022-11-28T00:38:45;23.35;;;15.02;;
26977;SDS011;56314;48.088;11.642;2022-11-28T00:41:15;22.52;;;14.18;;
26977;SDS011;56314;48.088;11.642;2022-11-28T00:43:42;22.20;;;13.85;;
26977;SDS011;56314;48.088;11.642;2022-11-28T00:46:12;22.40;;;14.10;;
26977;SDS011;56314;48.088;11.642;2022-11-28T00:48:38;21.55;;;13.52;;
26977;SDS011;56314;48.088;11.642;2022-11-28T00:51:14;22.13;;;13.82;;
26977;SDS011;56314;48.088;11.642;2022-11-28T00:53:42;23.85;;;14.10;;
26977;SDS011;56314;48.088;11.642;2022-11-28T00:56:13;21.98;;;13.93;;
26977;SDS011;56314;48.088;11.642;2022-11-28T00:58:40;24.23;;;14.80;;
26977;SDS011;56314;48.088;11.642;2022-11-28T01:01:09;20.40;;;14.18;;
26977;SDS011;56314;48.088;11.642;2022-11-28T01:03:37;23.13;;;14.43;;
26977;SDS011;56314;48.088;11.642;2022-11-28T01:06:03;23.98;;;15.25;;
26977;SDS011;56314;48.088;11.642;2022-11-28T01:08:28;21.42;;;14.05;;
26977;SDS011;56314;48.088;11.642;2022-11-28T01:10:54;21.02;;;13.63;;
26977;SDS011;56314;48.088;11.642;2022-11-28T01:13:19;21.30;;;14.15;;
26977;SDS011;56314;48.088;11.642;2022-11-28T01:15:45;23.70;;;14.57;;
26977;SDS011;56314;48.088;11.642;2022-11-28T01:18:10;24.63;;;13.82;;
26977;SDS011;56314;48.088;11.642;2022-11-28T01:20:35;24.08;;;14.35;;
26977;SDS011;56314;48.088;11.642;2022-11-28T01:23:01;24.33;;;14.27;;
26977;SDS011;56314;48.088;11.642;2022-11-28T01:25:26;23.17;;;14.15;;
26977;SDS011;56314;48.088;11.642;2022-11-28T01:27:51;23.02;;;15.05;;
26977;SDS011;56314;48.088;11.642;2022-11-28T01:30:17;23.65;;;14.60;;
26977;SDS011;56314;48.088;11.642;2022-11-28T01:32:42;23.83;;;14.30;;
26977;SDS011;56314;48.088;11.642;2022-11-28T01:35:08;25.85;;;14.95;;
26977;SDS011;56314;48.088;11.642;2022-11-28T01:37:34;25.00;;;14.98;;
26977;SDS011;56314;48.088;11.642;2022-11-28T01:39:59;23.17;;;14.68;;
26977;SDS011;56314;48.088;11.642;2022-11-28T01:42:24;24.52;;;14.48;;
26977;SDS011;56314;48.088;11.642;2022-11-28T01:47:22;22.17;;;14.57;;
26977;SDS011;56314;48.088;11.642;2022-11-28T01:49:51;24.38;;;14.13;;
26977;SDS011;56314;48.088;11.642;2022-11-28T01:52:19;23.50;;;14.52;;
26977;SDS011;56314;48.088;11.642;2022-11-28T01:54:47;23.40;;;14.48;;
26977;SDS011;56314;48.088;11.642;2022-11-28T01:57:17;25.70;;;14.63;;
26977;SDS011;56314;48.088;11.642;2022-11-28T01:59:50;20.48;;;13.85;;
26977;SDS011;56314;48.088;11.642;2022-11-28T02:02:25;24.73;;;14.65;;
26977;SDS011;56314;48.088;11.642;2022-11-28T02:04:56;23.55;;;15.05;;
26977;SDS011;56314;48.088;11.642;2022-11-28T02:07:22;21.23;;;13.90;;
26977;SDS011;56314;48.088;11.642;2022-11-28T02:09:47;21.67;;;13.50;;
26977;SDS011;56314;48.088;11.642;2022-11-28T02:17:55;25.45;;;15.52;;
26977;SDS011;56314;48.088;11.642;2022-11-28T02:25:30;21.75;;;12.88;;
26977;SDS011;56314;48.088;11.642;2022-11-28T02:33:33;23.38;;;15.30;;
26977;SDS011;56314;48.088;11.642;2022-11-28T02:44:10;22.88;;;14.30;;
26977;SDS011;56314;48.088;11.642;2022-11-28T02:46:43;23.88;;;14.00;;
26977;SDS011;56314;48.088;11.642;2022-11-28T02:49:26;23.38;;;13.65;;
26977;SDS011;56314;48.088;11.642;2022-11-28T02:51:59;21.33;;;12.82;;
26977;SDS011;56314;48.088;11.642;2022-11-28T02:54:28;20.00;;;13.05;;
26977;SDS011;56314;48.088;11.642;2022-11-28T02:56:55;21.50;;;13.75;;
26977;SDS011;56314;48.088;11.642;2022-11-28T02:59:28;22.15;;;13.82;;
26977;SDS011;56314;48.088;11.642;2022-11-28T03:01:58;20.75;;;13.85;;
26977;SDS011;56314;48.088;11.642;2022-11-28T03:04:33;21.52;;;14.07;;
26977;SDS011;56314;48.088;11.642;2022-11-28T03:18:27;20.33;;;13.00;;
26977;SDS011;56314;48.088;11.642;2022-11-28T03:26:15;22.58;;;14.25;;
26977;SDS011;56314;48.088;11.642;2022-11-28T03:28:53;23.52;;;14.02;;
26977;SDS011;56314;48.088;11.642;2022-11-28T03:31:26;24.08;;;14.63;;
26977;SDS011;56314;48.088;11.642;2022-11-28T03:33:59;22.58;;;14.70;;
26977;SDS011;56314;48.088;11.642;2022-11-28T03:36:29;21.70;;;14.27;;
26977;SDS011;56314;48.088;11.642;2022-11-28T03:39:02;22.40;;;14.70;;
26977;SDS011;56314;48.088;11.642;2022-11-28T03:41:37;25.40;;;14.65;;
26977;SDS011;56314;48.088;11.642;2022-11-28T03:44:07;15.70;;;10.45;;
26977;SDS011;56314;48.088;11.642;2022-11-28T03:46:45;24.92;;;14.48;;
26977;SDS011;56314;48.088;11.642;2022-11-28T03:49:14;24.10;;;14.15;;
26977;SDS011;56314;48.088;11.642;2022-11-28T03:51:52;23.60;;;13.52;;
26977;SDS011;56314;48.088;11.642;2022-11-28T03:54:27;24.95;;;14.07;;
26977;SDS011;56314;48.088;11.642;2022-11-28T03:57:00;26.40;;;14.85;;
26977;SDS011;56314;48.088;11.642;2022-11-28T03:59:48;23.77;;;14.52;;
26977;SDS011;56314;48.088;11.642;2022-11-28T04:02:20;25.08;;;14.20;;
26977;SDS011;56314;48.088;11.642;2022-11-28T04:04:59;24.75;;;14.60;;
26977;SDS011;56314;48.088;11.642;2022-11-28T04:07:38;27.92;;;15.68;;
26977;SDS011;56314;48.088;11.642;2022-11-28T04:10:14;26.30;;;14.95;;
26977;SDS011;56314;48.088;11.642;2022-11-28T04:15:53;28.40;;;15.07;;
26977;SDS011;56314;48.088;11.642;2022-11-28T04:18:28;27.95;;;15.02;;
26977;SDS011;56314;48.088;11.642;2022-11-28T04:23:49;26.08;;;15.48;;
26977;SDS011;56314;48.088;11.642;2022-11-28T04:26:21;26.95;;;15.98;;
26977;SDS011;56314;48.088;11.642;2022-11-28T04:28:53;21.75;;;12.10;;
26977;SDS011;56314;48.088;11.642;2022-11-28T04:31:21;27.75;;;15.60;;
26977;SDS011;56314;48.088;11.642;2022-11-28T04:33:49;27.15;;;15.25;;
26977;SDS011;56314;48.088;11.642;2022-11-28T04:36:20;25.02;;;14.98;;
26977;SDS011;56314;48.088;11.642;2022-11-28T04:38:49;30.50;;;16.48;;
26977;SDS011;56314;48.088;11.642;2022-11-28T04:41:33;27.80;;;15.48;;
26977;SDS011;56314;48.088;11.642;2022-11-28T04:44:14;25.75;;;15.27;;
26977;SDS011;56314;48.088;11.642;2022-11-28T04:46:47;25.27;;;15.20;;
26977;SDS011;56314;48.088;11.642;2022-11-28T04:49:17;25.10;;;15.00;;
26977;SDS011;56314;48.088;11.642;2022-11-28T04:59:19;24.48;;;14.70;;
26977;SDS011;56314;48.088;11.642;2022-11-28T05:01:48;25.15;;;14.93;;
26977;SDS011;56314;48.088;11.642;2022-11-28T05:04:14;27.58;;;15.82;;
26977;SDS011;56314;48.088;11.642;2022-11-28T05:06:41;26.90;;;15.82;;
26977;SDS011;56314;48.088;11.642;2022-11-28T05:09:08;26.15;;;14.60;;
26977;SDS011;56314;48.088;11.642;2022-11-28T05:11:35;26.30;;;16.00;;
26977;SDS011;56314;48.088;11.642;2022-11-28T05:14:01;24.67;;;14.40;;
26977;SDS011;56314;48.088;11.642;2022-11-28T05:16:26;26.00;;;14.57;;
26977;SDS011;56314;48.088;11.642;2022-11-28T05:18:51;24.98;;;14.70;;
26977;SDS011;56314;48.088;11.642;2022-11-28T05:21:17;22.13;;;14.05;;
26977;SDS011;56314;48.088;11.642;2022-11-28T05:23:43;24.25;;;14.18;;
26977;SDS011;56314;48.088;11.642;2022-11-28T05:26:13;24.70;;;15.52;;
26977;SDS011;56314;48.088;11.642;2022-11-28T05:28:43;23.80;;;14.27;;
26977;SDS011;56314;48.088;11.642;2022-11-28T05:31:10;26.80;;;15.40;;
26977;SDS011;56314;48.088;11.642;2022-11-28T05:33:37;23.50;;;14.60;;
26977;SDS011;56314;48.088;11.642;2022-11-28T05:36:06;26.00;;;15.73;;
26977;SDS011;56314;48.088;11.642;2022-11-28T05:38:34;25.98;;;15.90;;
26977;SDS011;56314;48.088;11.642;2022-11-28T05:41:00;23.27;;;15.25;;
26977;SDS011;56314;48.088;11.642;2022-11-28T05:43:26;25.65;;;14.60;;
26977;SDS011;56314;48.088;11.642;2022-11-28T05:45:51;24.73;;;14.93;;
26977;SDS011;56314;48.088;11.642;2022-11-28T05:48:17;24.58;;;14.48;;
26977;SDS011;56314;48.088;11.642;2022-11-28T05:50:42;26.10;;;15.13;;
26977;SDS011;56314;48.088;11.642;2022-11-28T05:53:08;22.30;;;14.40;;
26977;SDS011;56314;48.088;11.642;2022-11-28T05:55:34;23.65;;;15.20;;
26977;SDS011;56314;48.088;11.642;2022-11-28T05:58:01;24.45;;;14.90;;
26977;SDS011;56314;48.088;11.642;2022-11-28T06:00:27;22.45;;;14.40;;
26977;SDS011;56314;48.088;11.642;2022-11-28T06:02:52;23.30;;;14.95;;
26977;SDS011;56314;48.088;11.642;2022-11-28T06:05:17;23.75;;;14.98;;
26977;SDS011;56314;48.088;11.642;2022-11-28T06:07:43;22.88;;;14.20;;
26977;SDS011;56314;48.088;11.642;2022-11-28T06:10:08;26.13;;;16.65;;
26977;SDS011;56314;48.088;11.642;2022-11-28T06:12:33;22.42;;;14.18;;
26977;SDS011;56314;48.088;11.642;2022-11-28T06:14:59;23.70;;;13.88;;
26977;SDS011;56314;48.088;11.642;2022-11-28T06:17:24;24.92;;;14.80;;
26977;SDS011;56314;48.088;11.642;2022-11-28T06:19:50;23.15;;;14.70;;
26977;SDS011;56314;48.088;11.642;2022-11-28T06:22:15;21.73;;;14.02;;
26977;SDS011;56314;48.088;11.642;2022-11-28T06:24:40;23.58;;;15.02;;
26977;SDS011;56314;48.088;11.642;2022-11-28T06:27:06;22.50;;;14.48;;
26977;SDS011;56314;48.088;11.642;2022-11-28T06:29:31;24.42;;;15.57;;
26977;SDS011;56314;48.088;11.642;2022-11-28T06:31:56;24.38;;;15.68;;
26977;SDS011;56314;48.088;11.642;2022-11-28T06:34:22;25.13;;;14.25;;
26977;SDS011;56314;48.088;11.642;2022-11-28T06:36:47;22.55;;;14.27;;
26977;SDS011;56314;48.088;11.642;2022-11-28T06:39:13;25.50;;;14.95;;
26977;SDS011;56314;48.088;11.642;2022-11-28T06:41:40;27.80;;;15.55;;
26977;SDS011;56314;48.088;11.642;2022-11-28T06:44:07;22.88;;;13.98;;
26977;SDS011;56314;48.088;11.642;2022-11-28T06:46:36;24.85;;;14.27;;
26977;SDS011;56314;48.088;11.642;2022-11-28T06:49:02;29.73;;;16.00;;
26977;SDS011;56314;48.088;11.642;2022-11-28T06:51:27;25.83;;;15.50;;
26977;SDS011;56314;48.088;11.642;2022-11-28T06:53:53;23.40;;;14.48;;
26977;SDS011;56314;48.088;11.642;2022-11-28T06:56:18;22.92;;;14.43;;
26977;SDS011;56314;48.088;11.642;2022-11-28T06:58:44;23.38;;;14.50;;
26977;SDS011;56314;48.088;11.642;2022-11-28T07:03:39;28.98;;;15.23;;
26977;SDS011;56314;48.088;11.642;2022-11-28T07:06:05;30.58;;;15.35;;
26977;SDS011;56314;48.088;11.642;2022-11-28T07:08:31;21.92;;;13.82;;
26977;SDS011;56314;48.088;11.642;2022-11-28T07:10:57;24.90;;;14.38;;
26977;SDS011;56314;48.088;11.642;2022-11-28T07:13:30;23.63;;;14.38;;
26977;SDS011;56314;48.088;11.642;2022-11-28T07:15:55;23.52;;;14.95;;
26977;SDS011;56314;48.088;11.642;2022-11-28T07:18:20;23.73;;;13.27;;
26977;SDS011;56314;48.088;11.642;2022-11-28T07:20:46;25.00;;;15.07;;
26977;SDS011;56314;48.088;11.642;2022-11-28T07:23:11;23.95;;;15.30;;
26977;SDS011;56314;48.088;11.642;2022-11-28T07:25:36;23.38;;;14.88;;
26977;SDS011;56314;48.088;11.642;2022-11-28T07:28:02;22.52;;;15.18;;
26977;SDS011;56314;48.088;11.642;2022-11-28T07:30:27;22.92;;;13.77;;
26977;SDS011;56314;48.088;11.642;2022-11-28T07:32:53;21.48;;;14.10;;
26977;SDS011;56314;48.088;11.642;2022-11-28T07:35:18;28.02;;;15.23;;
26977;SDS011;56314;48.088;11.642;2022-11-28T07:37:43;24.13;;;15.10;;
26977;SDS011;56314;48.088;11.642;2022-11-28T07:40:09;22.08;;;14.70;;
26977;SDS011;56314;48.088;11.642;2022-11-28T07:42:34;23.05;;;15.13;;
26977;SDS011;56314;48.088;11.642;2022-11-28T07:45:00;23.17;;;14.55;;
26977;SDS011;56314;48.088;11.642;2022-11-28T07:47:26;27.45;;;15.25;;
26977;SDS011;56314;48.088;11.642;2022-11-28T07:49:51;23.67;;;15.10;;
26977;SDS011;56314;48.088;11.642;2022-11-28T07:52:16;24.17;;;14.48;;
26977;SDS011;56314;48.088;11.642;2022-11-28T07:54:42;23.42;;;15.32;;
26977;SDS011;56314;48.088;11.642;2022-11-28T07:57:07;28.55;;;15.75;;
26977;SDS011;56314;48.088;11.642;2022-11-28T07:59:32;22.67;;;14.65;;
26977;SDS011;56314;48.088;11.642;2022-11-28T08:01:58;23.50;;;14.07;;
26977;SDS011;56314;48.088;11.642;2022-11-28T08:04:23;24.55;;;15.35;;
26977;SDS011;56314;48.088;11.642;2022-11-28T08:06:49;21.83;;;14.77;;
26977;SDS011;56314;48.088;11.642;2022-11-28T08:09:14;22.85;;;14.85;;
26977;SDS011;56314;48.088;11.642;2022-11-28T08:11:39;22.75;;;14.80;;
26977;SDS011;56314;48.088;11.642;2022-11-28T08:14:05;23.45;;;15.55;;
26977;SDS011;56314;48.088;11.642;2022-11-28T08:16:31;24.50;;;15.50;;
26977;SDS011;56314;48.088;11.642;2022-11-28T08:18:59;23.77;;;14.70;;
26977;SDS011;56314;48.088;11.642;2022-11-28T08:21:26;24.63;;;15.98;;
26977;SDS011;56314;48.088;11.642;2022-11-28T08:23:54;23.00;;;15.07;;
26977;SDS011;56314;48.088;11.642;2022-11-28T08:26:22;23.80;;;13.80;;
26977;SDS011;56314;48.088;11.642;2022-11-28T08:28:49;24.90;;;15.50;;
26977;SDS011;56314;48.088;11.642;2022-11-28T08:31:17;26.60;;;15.32;;
26977;SDS011;56314;48.088;11.642;2022-11-28T08:33:44;22.67;;;14.32;;
26977;SDS011;56314;48.088;11.642;2022-11-28T08:36:11;23.80;;;14.77;;
26977;SDS011;56314;48.088;11.642;2022-11-28T08:38:39;25.40;;;14.75;;
26977;SDS011;56314;48.088;11.642;2022-11-28T08:41:05;23.00;;;14.95;;
26977;SDS011;56314;48.088;11.642;2022-11-28T08:43:33;23.17;;;15.15;;
26977;SDS011;56314;48.088;11.642;2022-11-28T08:46:00;22.85;;;15.30;;
26977;SDS011;56314;48.088;11.642;2022-11-28T08:48:26;22.15;;;13.50;;
26977;SDS011;56314;48.088;11.642;2022-11-28T08:50:51;21.63;;;14.18;;
26977;SDS011;56314;48.088;11.642;2022-11-28T08:53:18;22.38;;;14.23;;
26977;SDS011;56314;48.088;11.642;2022-11-28T08:55:43;20.42;;;12.95;;
26977;SDS011;56314;48.088;11.642;2022-11-28T08:58:12;20.00;;;13.73;;
26977;SDS011;56314;48.088;11.642;2022-11-28T09:00:38;19.77;;;12.80;;
26977;SDS011;56314;48.088;11.642;2022-11-28T09:03:06;16.77;;;12.02;;
26977;SDS011;56314;48.088;11.642;2022-11-28T09:05:31;22.83;;;12.65;;
26977;SDS011;56314;48.088;11.642;2022-11-28T09:07:57;18.27;;;11.85;;
26977;SDS011;56314;48.088;11.642;2022-11-28T09:10:22;17.27;;;11.30;;
26977;SDS011;56314;48.088;11.642;2022-11-28T09:12:49;19.63;;;11.23;;
26977;SDS011;56314;48.088;11.642;2022-11-28T09:15:15;15.18;;;10.73;;
26977;SDS011;56314;48.088;11.642;2022-11-28T09:17:41;15.15;;;10.68;;
26977;SDS011;56314;48.088;11.642;2022-11-28T09:20:07;15.70;;;10.35;;
26977;SDS011;56314;48.088;11.642;2022-11-28T09:22:33;16.40;;;10.93;;
26977;SDS011;56314;48.088;11.642;2022-11-28T09:24:58;14.75;;;10.35;;
26977;SDS011;56314;48.088;11.642;2022-11-28T09:27:23;15.77;;;10.85;;
26977;SDS011;56314;48.088;11.642;2022-11-28T09:29:49;14.73;;;10.63;;
26977;SDS011;56314;48.088;11.642;2022-11-28T09:32:14;15.90;;;10.07;;
26977;SDS011;56314;48.088;11.642;2022-11-28T09:34:39;17.77;;;9.65;;
26977;SDS011;56314;48.088;11.642;2022-11-28T09:37:05;16.77;;;9.85;;
26977;SDS011;56314;48.088;11.642;2022-11-28T09:39:30;17.08;;;10.30;;
26977;SDS011;56314;48.088;11.642;2022-11-28T09:44:41;14.07;;;10.18;;
26977;SDS011;56314;48.088;11.642;2022-11-28T09:47:22;14.50;;;9.57;;
26977;SDS011;56314;48.088;11.642;2022-11-28T09:50:01;16.42;;;9.70;;
26977;SDS011;56314;48.088;11.642;2022-11-28T09:55:44;15.00;;;10.05;;
26977;SDS011;56314;48.088;11.642;2022-11-28T09:58:25;13.85;;;10.20;;
26977;SDS011;56314;48.088;11.642;2022-11-28T10:06:45;16.65;;;10.30;;
26977;SDS011;56314;48.088;11.642;2022-11-28T10:17:35;19.63;;;11.73;;
26977;SDS011;56314;48.088;11.642;2022-11-28T10:23:13;22.42;;;11.70;;
26977;SDS011;56314;48.088;11.642;2022-11-28T10:28:36;17.48;;;11.30;;
26977;SDS011;56314;48.088;11.642;2022-11-28T10:33:39;12.75;;;9.32;;
26977;SDS011;56314;48.088;11.642;2022-11-28T10:36:12;14.95;;;8.75;;
26977;SDS011;56314;48.088;11.642;2022-11-28T10:38:45;16.60;;;10.10;;
26977;SDS011;56314;48.088;11.642;2022-11-28T10:41:16;13.77;;;9.40;;
26977;SDS011;56314;48.088;11.642;2022-11-28T10:47:05;12.73;;;9.07;;
26977;SDS011;56314;48.088;11.642;2022-11-28T10:52:49;17.60;;;9.98;;
26977;SDS011;56314;48.088;11.642;2022-11-28T10:55:37;17.83;;;10.65;;
26977;SDS011;56314;48.088;11.642;2022-11-28T10:58:26;18.05;;;11.35;;
26977;SDS011;56314;48.088;11.642;2022-11-28T11:01:06;11.70;;;8.97;;
26977;SDS011;56314;48.088;11.642;2022-11-28T11:03:33;13.13;;;9.57;;
26977;SDS011;56314;48.088;11.642;2022-11-28T11:06:00;16.85;;;11.35;;
26977;SDS011;56314;48.088;11.642;2022-11-28T11:08:27;15.45;;;10.18;;
26977;SDS011;56314;48.088;11.642;2022-11-28T11:11:15;14.27;;;10.35;;
26977;SDS011;56314;48.088;11.642;2022-11-28T11:14:00;16.55;;;10.60;;
26977;SDS011;56314;48.088;11.642;2022-11-28T11:19:21;14.40;;;9.38;;
26977;SDS011;56314;48.088;11.642;2022-11-28T11:21:58;15.30;;;9.90;;
26977;SDS011;56314;48.088;11.642;2022-11-28T11:24:29;16.50;;;9.35;;
26977;SDS011;56314;48.088;11.642;2022-11-28T11:27:01;12.43;;;9.27;;
26977;SDS011;56314;48.088;11.642;2022-11-28T11:29:45;24.05;;;9.38;;
26977;SDS011;56314;48.088;11.642;2022-11-28T11:32:20;16.50;;;8.90;;
26977;SDS011;56314;48.088;11.642;2022-11-28T11:34:50;11.55;;;8.38;;
26977;SDS011;56314;48.088;11.642;2022-11-28T11:37:17;10.57;;;8.00;;
26977;SDS011;56314;48.088;11.642;2022-11-28T11:39:49;9.43;;;7.35;;
26977;SDS011;56314;48.088;11.642;2022-11-28T11:42:22;10.30;;;8.15;;
26977;SDS011;56314;48.088;11.642;2022-11-28T11:44:50;14.80;;;8.85;;
26977;SDS011;56314;48.088;11.642;2022-11-28T11:47:16;12.68;;;7.80;;
26977;SDS011;56314;48.088;11.642;2022-11-28T11:49:43;9.50;;;7.05;;
26977;SDS011;56314;48.088;11.642;2022-11-28T11:54:37;9.38;;;7.18;;
26977;SDS011;56314;48.088;11.642;2022-11-28T11:57:03;12.55;;;7.30;;
26977;SDS011;56314;48.088;11.642;2022-11-28T11:59:33;10.02;;;7.53;;
26977;SDS011;56314;48.088;11.642;2022-11-28T12:02:05;10.50;;;6.78;;
26977;SDS011;56314;48.088;11.642;2022-11-28T12:04:40;8.52;;;7.07;;
26977;SDS011;56314;48.088;11.642;2022-11-28T12:09:57;11.00;;;7.63;;
26977;SDS011;56314;48.088;11.642;2022-11-28T12:12:24;9.13;;;6.82;;
26977;SDS011;56314;48.088;11.642;2022-11-28T12:14:53;9.48;;;6.90;;
26977;SDS011;56314;48.088;11.642;2022-11-28T12:41:56;13.82;;;7.07;;
26977;SDS011;56314;48.088;11.642;2022-11-28T12:47:22;8.07;;;5.88;;
26977;SDS011;56314;48.088;11.642;2022-11-28T12:49:57;8.98;;;6.68;;
26977;SDS011;56314;48.088;11.642;2022-11-28T12:52:33;16.52;;;10.20;;
26977;SDS011;56314;48.088;11.642;2022-11-28T12:55:19;11.38;;;7.53;;
26977;SDS011;56314;48.088;11.642;2022-11-28T12:58:02;11.00;;;7.65;;
26977;SDS011;56314;48.088;11.642;2022-11-28T13:01:25;12.35;;;7.90;;
26977;SDS011;56314;48.088;11.642;2022-11-28T13:04:02;11.93;;;7.97;;
26977;SDS011;56314;48.088;11.642;2022-11-28T13:09:33;12.43;;;8.10;;
26977;SDS011;56314;48.088;11.642;2022-11-28T13:14:51;12.43;;;7.82;;
26977;SDS011;56314;48.088;11.642;2022-11-28T13:17:22;14.13;;;7.38;;
26977;SDS011;56314;48.088;11.642;2022-11-28T13:25:18;14.20;;;8.13;;
26977;SDS011;56314;48.088;11.642;2022-11-28T13:27:54;11.55;;;8.45;;
26977;SDS011;56314;48.088;11.642;2022-11-28T13:30:44;15.05;;;8.88;;
26977;SDS011;56314;48.088;11.642;2022-11-28T13:36:04;12.98;;;7.88;;
26977;SDS011;56314;48.088;11.642;2022-11-28T13:38:51;14.60;;;7.22;;
26977;SDS011;56314;48.088;11.642;2022-11-28T13:41:33;17.50;;;7.70;;
26977;SDS011;56314;48.088;11.642;2022-11-28T13:44:09;13.02;;;7.60;;
26977;SDS011;56314;48.088;11.642;2022-11-28T13:46:43;13.35;;;8.27;;
26977;SDS011;56314;48.088;11.642;2022-11-28T13:49:21;12.68;;;7.53;;
26977;SDS011;56314;48.088;11.642;2022-11-28T13:52:29;12.85;;;8.10;;
26977;SDS011;56314;48.088;11.642;2022-11-28T13:54:43;13.70;;;8.15;;
26977;SDS011;56314;48.088;11.642;2022-11-28T13:57:18;11.82;;;7.70;;
26977;SDS011;56314;48.088;11.642;2022-11-28T13:59:56;15.07;;;8.55;;
26977;SDS011;56314;48.088;11.642;2022-11-28T14:04:53;10.50;;;7.88;;
26977;SDS011;56314;48.088;11.642;2022-11-28T14:07:20;12.88;;;8.05;;
26977;SDS011;56314;48.088;11.642;2022-11-28T14:12:43;11.07;;;7.65;;
26977;SDS011;56314;48.088;11.642;2022-11-28T14:20:56;12.32;;;7.50;;
26977;SDS011;56314;48.088;11.642;2022-11-28T14:26:29;13.88;;;9.00;;
26977;SDS011;56314;48.088;11.642;2022-11-28T14:28:57;13.38;;;7.50;;
26977;SDS011;56314;48.088;11.642;2022-11-28T14:31:24;13.30;;;7.93;;
26977;SDS011;56314;48.088;11.642;2022-11-28T14:34:05;16.63;;;7.68;;
26977;SDS011;56314;48.088;11.642;2022-11-28T14:36:35;18.02;;;7.57;;
26977;SDS011;56314;48.088;11.642;2022-11-28T14:44:55;14.90;;;7.07;;
26977;SDS011;56314;48.088;11.642;2022-11-28T14:47:31;13.57;;;6.82;;
26977;SDS011;56314;48.088;11.642;2022-11-28T14:52:32;13.18;;;7.60;;
26977;SDS011;56314;48.088;11.642;2022-11-28T14:57:34;11.75;;;7.03;;
26977;SDS011;56314;48.088;11.642;2022-11-28T15:00:06;16.55;;;7.32;;
26977;SDS011;56314;48.088;11.642;2022-11-28T15:14:34;10.25;;;7.32;;
26977;SDS011;56314;48.088;11.642;2022-11-28T15:16:45;11.05;;;7.57;;
26977;SDS011;56314;48.088;11.642;2022-11-28T15:19:24;11.13;;;7.03;;
26977;SDS011;56314;48.088;11.642;2022-11-28T15:25:19;11.75;;;8.57;;
26977;SDS011;56314;48.088;11.642;2022-11-28T15:27:49;16.40;;;7.60;;
26977;SDS011;56314;48.088;11.642;2022-11-28T15:30:15;12.65;;;8.50;;
26977;SDS011;56314;48.088;11.642;2022-11-28T15:32:43;10.57;;;7.20;;
26977;SDS011;56314;48.088;11.642;2022-11-28T15:35:09;13.02;;;7.97;;
26977;SDS011;56314;48.088;11.642;2022-11-28T15:37:46;13.38;;;8.32;;
26977;SDS011;56314;48.088;11.642;2022-11-28T15:40:20;11.18;;;8.73;;
26977;SDS011;56314;48.088;11.642;2022-11-28T15:42:49;13.90;;;9.00;;
26977;SDS011;56314;48.088;11.642;2022-11-28T15:47:52;14.30;;;9.52;;
26977;SDS011;56314;48.088;11.642;2022-11-28T15:50:20;12.40;;;8.68;;
26977;SDS011;56314;48.088;11.642;2022-11-28T15:52:59;13.43;;;8.82;;
26977;SDS011;56314;48.088;11.642;2022-11-28T15:55:28;14.52;;;8.82;;
26977;SDS011;56314;48.088;11.642;2022-11-28T16:00:45;14.75;;;9.35;;
26977;SDS011;56314;48.088;11.642;2022-11-28T16:03:16;15.75;;;9.10;;
26977;SDS011;56314;48.088;11.642;2022-11-28T16:05:46;14.25;;;9.07;;
26977;SDS011;56314;48.088;11.642;2022-11-28T16:10:52;16.35;;;10.27;;
26977;SDS011;56314;48.088;11.642;2022-11-28T16:13:18;16.73;;;9.85;;
26977;SDS011;56314;48.088;11.642;2022-11-28T16:15:46;15.57;;;10.77;;
26977;SDS011;56314;48.088;11.642;2022-11-28T16:18:14;18.38;;;9.90;;
26977;SDS011;56314;48.088;11.642;2022-11-28T16:20:40;20.35;;;10.40;;
26977;SDS011;56314;48.088;11.642;2022-11-28T16:23:08;20.45;;;10.30;;
26977;SDS011;56314;48.088;11.642;2022-11-28T16:25:41;16.85;;;10.75;;
26977;SDS011;56314;48.088;11.642;2022-11-28T16:31:09;16.85;;;11.15;;
26977;SDS011;56314;48.088;11.642;2022-11-28T16:33:43;24.08;;;13.95;;
26977;SDS011;56314;48.088;11.642;2022-11-28T16:38:49;14.63;;;10.82;;
26977;SDS011;56314;48.088;11.642;2022-11-28T16:41:23;20.45;;;10.88;;
26977;SDS011;56314;48.088;11.642;2022-11-28T16:43:52;16.65;;;10.07;;
26977;SDS011;56314;48.088;11.642;2022-11-28T16:46:23;15.82;;;10.10;;
26977;SDS011;56314;48.088;11.642;2022-11-28T16:48:53;20.42;;;11.38;;
26977;SDS011;56314;48.088;11.642;2022-11-28T16:53:52;20.75;;;12.02;;
26977;SDS011;56314;48.088;11.642;2022-11-28T16:56:23;17.05;;;11.77;;
26977;SDS011;56314;48.088;11.642;2022-11-28T17:01:31;21.88;;;13.73;;
26977;SDS011;56314;48.088;11.642;2022-11-28T17:03:57;23.20;;;14.50;;
26977;SDS011;56314;48.088;11.642;2022-11-28T17:06:43;21.58;;;14.27;;
26977;SDS011;56314;48.088;11.642;2022-11-28T17:09:09;19.80;;;13.40;;
26977;SDS011;56314;48.088;11.642;2022-11-28T17:11:36;18.27;;;12.05;;
26977;SDS011;56314;48.088;11.642;2022-11-28T17:14:06;20.13;;;12.05;;
26977;SDS011;56314;48.088;11.642;2022-11-28T17:16:34;18.58;;;12.43;;
26977;SDS011;56314;48.088;11.642;2022-11-28T17:19:00;17.27;;;10.63;;
26977;SDS011;56314;48.088;11.642;2022-11-28T17:21:34;19.80;;;11.00;;
26977;SDS011;56314;48.088;11.642;2022-11-28T17:24:01;15.55;;;11.15;;
26977;SDS011;56314;48.088;11.642;2022-11-28T17:26:26;16.35;;;10.48;;
26977;SDS011;56314;48.088;11.642;2022-11-28T17:28:52;14.65;;;10.57;;
26977;SDS011;56314;48.088;11.642;2022-11-28T17:31:17;15.00;;;11.23;;
26977;SDS011;56314;48.088;11.642;2022-11-28T17:33:43;17.13;;;10.65;;
26977;SDS011;56314;48.088;11.642;2022-11-28T17:36:09;19.95;;;12.63;;
26977;SDS011;56314;48.088;11.642;2022-11-28T17:38:36;16.13;;;11.57;;
26977;SDS011;56314;48.088;11.642;2022-11-28T17:41:01;17.63;;;12.40;;
26977;SDS011;56314;48.088;11.642;2022-11-28T17:43:27;23.40;;;13.63;;
26977;SDS011;56314;48.088;11.642;2022-11-28T17:45:52;19.65;;;13.52;;
26977;SDS011;56314;48.088;11.642;2022-11-28T17:48:18;20.52;;;13.50;;
26977;SDS011;56314;48.088;11.642;2022-11-28T17:50:44;19.15;;;13.05;;